sensor_id;sensor_type;location;lat;lon;timestamp;pressure;altitude;pressure_sealevel;temperature;humidity
46506;BME280;32220;49.808;9.968;2022-09-30T00:01:03;98052.94;;;6.92;74.69
46506;BME280;32220;49.808;9.968;2022-09-30T00:03:31;98068.19;;;7.01;74.91
46506;BME280;32220;49.808;9.968;2022-09-30T00:06:01;98050.31;;;6.92;74.97
46506;BME280;32220;49.808;9.968;2022-09-30T00:08:28;98058.09;;;6.93;75.03
46506;BME280;32220;49.808;9.968;2022-09-30T00:11:01;98079.25;;;7.06;75.12
46506;BME280;32220;49.808;9.968;2022-09-30T00:13:30;98076.06;;;7.01;75.19
46506;BME280;32220;49.808;9.968;2022-09-30T00:15:59;98075.13;;;7.02;75.40
46506;BME280;32220;49.808;9.968;2022-09-30T00:18:27;98061.78;;;6.91;75.52
46506;BME280;32220;49.808;9.968;2022-09-30T00:20:55;98065.53;;;6.87;75.27
46506;BME280;32220;49.808;9.968;2022-09-30T00:23:24;98068.34;;;6.83;75.34
46506;BME280;32220;49.808;9.968;2022-09-30T00:25:57;98078.19;;;6.80;75.62
46506;BME280;32220;49.808;9.968;2022-09-30T00:28:25;98097.09;;;6.87;75.62
46506;BME280;32220;49.808;9.968;2022-09-30T00:30:53;98084.09;;;6.69;75.49
46506;BME280;32220;49.808;9.968;2022-09-30T00:33:22;98095.78;;;6.79;75.97
46506;BME280;32220;49.808;9.968;2022-09-30T00:35:50;98076.66;;;6.62;75.97
46506;BME280;32220;49.808;9.968;2022-09-30T00:38:17;98081.84;;;6.63;76.42
46506;BME280;32220;49.808;9.968;2022-09-30T00:40:46;98084.19;;;6.68;76.13
46506;BME280;32220;49.808;9.968;2022-09-30T00:43:16;98092.75;;;6.71;75.98
46506;BME280;32220;49.808;9.968;2022-09-30T00:45:48;98100.56;;;6.73;76.06
46506;BME280;32220;49.808;9.968;2022-09-30T00:48:20;98104.13;;;6.72;76.15
46506;BME280;32220;49.808;9.968;2022-09-30T00:50:55;98086.59;;;6.57;76.05
46506;BME280;32220;49.808;9.968;2022-09-30T00:53:28;98106.06;;;6.68;76.67
46506;BME280;32220;49.808;9.968;2022-09-30T00:55:58;98107.44;;;6.75;76.42
46506;BME280;32220;49.808;9.968;2022-09-30T00:58:29;98104.63;;;6.78;76.29
46506;BME280;32220;49.808;9.968;2022-09-30T01:00:58;98098.00;;;6.71;76.39
46506;BME280;32220;49.808;9.968;2022-09-30T01:03:29;98083.91;;;6.72;75.98
46506;BME280;32220;49.808;9.968;2022-09-30T01:06:00;98089.00;;;6.75;75.96
46506;BME280;32220;49.808;9.968;2022-09-30T01:08:30;98089.00;;;6.75;75.82
46506;BME280;32220;49.808;9.968;2022-09-30T01:10:58;98089.84;;;6.76;75.91
46506;BME280;32220;49.808;9.968;2022-09-30T01:13:28;98090.72;;;6.76;75.79
46506;BME280;32220;49.808;9.968;2022-09-30T01:16:12;98106.53;;;6.91;75.88
46506;BME280;32220;49.808;9.968;2022-09-30T01:18:54;98112.72;;;6.90;76.19
46506;BME280;32220;49.808;9.968;2022-09-30T01:21:39;98118.84;;;6.90;75.88
46506;BME280;32220;49.808;9.968;2022-09-30T01:24:32;98110.25;;;6.87;75.72
46506;BME280;32220;49.808;9.968;2022-09-30T01:27:15;98097.66;;;6.77;75.66
46506;BME280;32220;49.808;9.968;2022-09-30T01:30:06;98093.34;;;6.76;75.81
46506;BME280;32220;49.808;9.968;2022-09-30T01:33:03;98113.84;;;6.85;76.62
46506;BME280;32220;49.808;9.968;2022-09-30T01:35:43;98098.69;;;6.75;76.25
46506;BME280;32220;49.808;9.968;2022-09-30T01:38:19;98102.34;;;6.72;76.16
46506;BME280;32220;49.808;9.968;2022-09-30T01:41:00;98117.94;;;6.75;76.21
46506;BME280;32220;49.808;9.968;2022-09-30T01:43:39;98099.31;;;6.64;76.41
46506;BME280;32220;49.808;9.968;2022-09-30T01:46:19;98113.25;;;6.66;76.23
46506;BME280;32220;49.808;9.968;2022-09-30T01:48:55;98075.78;;;6.47;76.38
46506;BME280;32220;49.808;9.968;2022-09-30T01:51:29;98111.72;;;6.62;76.34
46506;BME280;32220;49.808;9.968;2022-09-30T01:54:02;98099.09;;;6.53;76.38
46506;BME280;32220;49.808;9.968;2022-09-30T01:56:39;98112.72;;;6.60;76.38
46506;BME280;32220;49.808;9.968;2022-09-30T01:59:12;98126.94;;;6.71;76.58
46506;BME280;32220;49.808;9.968;2022-09-30T02:01:43;98123.38;;;6.72;76.91
46506;BME280;32220;49.808;9.968;2022-09-30T02:04:19;98104.75;;;6.61;76.72
46506;BME280;32220;49.808;9.968;2022-09-30T02:06:50;98108.31;;;6.60;76.72
46506;BME280;32220;49.808;9.968;2022-09-30T02:09:21;98130.59;;;6.69;76.75
46506;BME280;32220;49.808;9.968;2022-09-30T02:11:50;98116.97;;;6.62;76.25
46506;BME280;32220;49.808;9.968;2022-09-30T02:14:26;98105.22;;;6.54;76.43
46506;BME280;32220;49.808;9.968;2022-09-30T02:16:58;98128.66;;;6.72;76.20
46506;BME280;32220;49.808;9.968;2022-09-30T02:19:34;98130.19;;;6.76;76.37
46506;BME280;32220;49.808;9.968;2022-09-30T02:22:09;98131.78;;;6.79;76.21
46506;BME280;32220;49.808;9.968;2022-09-30T02:24:38;98140.31;;;6.82;76.34
46506;BME280;32220;49.808;9.968;2022-09-30T02:27:12;98109.00;;;6.64;76.70
46506;BME280;32220;49.808;9.968;2022-09-30T02:29:44;98131.16;;;6.90;76.99
46506;BME280;32220;49.808;9.968;2022-09-30T02:32:19;98116.94;;;6.78;76.97
46506;BME280;32220;49.808;9.968;2022-09-30T02:34:53;98140.44;;;6.95;77.41
46506;BME280;32220;49.808;9.968;2022-09-30T02:37:25;98138.19;;;6.89;77.16
46506;BME280;32220;49.808;9.968;2022-09-30T02:40:01;98130.38;;;6.88;77.28
46506;BME280;32220;49.808;9.968;2022-09-30T02:42:38;98128.50;;;6.90;77.25
46506;BME280;32220;49.808;9.968;2022-09-30T02:45:08;98153.25;;;7.01;76.94
46506;BME280;32220;49.808;9.968;2022-09-30T02:47:47;98157.59;;;7.02;77.28
46506;BME280;32220;49.808;9.968;2022-09-30T02:50:23;98143.28;;;6.92;77.37
46506;BME280;32220;49.808;9.968;2022-09-30T02:53:01;98141.47;;;6.93;77.33
46506;BME280;32220;49.808;9.968;2022-09-30T02:55:41;98135.47;;;6.91;77.32
46506;BME280;32220;49.808;9.968;2022-09-30T02:58:16;98156.31;;;6.94;77.77
46506;BME280;32220;49.808;9.968;2022-09-30T03:00:46;98153.31;;;6.85;77.77
46506;BME280;32220;49.808;9.968;2022-09-30T03:03:17;98175.69;;;6.93;77.94
46506;BME280;32220;49.808;9.968;2022-09-30T03:05:49;98179.63;;;6.85;77.57
46506;BME280;32220;49.808;9.968;2022-09-30T03:08:17;98165.75;;;6.68;77.85
46506;BME280;32220;49.808;9.968;2022-09-30T03:10:47;98173.75;;;6.66;77.89
46506;BME280;32220;49.808;9.968;2022-09-30T03:16:16;98174.69;;;6.49;77.82
46506;BME280;32220;49.808;9.968;2022-09-30T03:19:01;98179.28;;;6.46;77.63
46506;BME280;32220;49.808;9.968;2022-09-30T03:21:47;98122.66;;;6.09;77.81
46506;BME280;32220;49.808;9.968;2022-09-30T03:24:30;98186.41;;;6.44;77.54
46506;BME280;32220;49.808;9.968;2022-09-30T03:27:10;98195.22;;;6.43;77.53
46506;BME280;32220;49.808;9.968;2022-09-30T03:29:46;98161.31;;;6.23;77.57
46506;BME280;32220;49.808;9.968;2022-09-30T03:32:27;98170.81;;;6.25;77.75
46506;BME280;32220;49.808;9.968;2022-09-30T03:35:02;98180.66;;;6.22;77.52
46506;BME280;32220;49.808;9.968;2022-09-30T03:37:40;98192.78;;;6.24;77.43
46506;BME280;32220;49.808;9.968;2022-09-30T03:40:17;98186.34;;;6.14;77.38
46506;BME280;32220;49.808;9.968;2022-09-30T03:42:53;98188.81;;;6.17;77.53
46506;BME280;32220;49.808;9.968;2022-09-30T03:45:28;98171.19;;;6.03;77.19
46506;BME280;32220;49.808;9.968;2022-09-30T03:48:00;98191.34;;;6.19;77.22
46506;BME280;32220;49.808;9.968;2022-09-30T03:50:31;98198.28;;;6.20;77.25
46506;BME280;32220;49.808;9.968;2022-09-30T03:53:02;98190.53;;;6.18;77.23
46506;BME280;32220;49.808;9.968;2022-09-30T03:55:30;98224.50;;;6.37;77.31
46506;BME280;32220;49.808;9.968;2022-09-30T03:57:59;98203.06;;;6.29;77.60
46506;BME280;32220;49.808;9.968;2022-09-30T04:00:27;98211.97;;;6.42;77.41
46506;BME280;32220;49.808;9.968;2022-09-30T04:02:57;98214.59;;;6.42;77.52
46506;BME280;32220;49.808;9.968;2022-09-30T04:05:25;98194.72;;;6.36;77.20
46506;BME280;32220;49.808;9.968;2022-09-30T04:07:53;98199.91;;;6.38;77.57
46506;BME280;32220;49.808;9.968;2022-09-30T04:10:22;98212.69;;;6.44;77.52
46506;BME280;32220;49.808;9.968;2022-09-30T04:12:52;98221.03;;;6.52;77.39
46506;BME280;32220;49.808;9.968;2022-09-30T04:15:20;98210.84;;;6.46;77.49
46506;BME280;32220;49.808;9.968;2022-09-30T04:17:48;98206.88;;;6.39;77.63
46506;BME280;32220;49.808;9.968;2022-09-30T04:20:16;98209.50;;;6.39;77.63
46506;BME280;32220;49.808;9.968;2022-09-30T04:22:43;98164.06;;;6.05;77.53
46506;BME280;32220;49.808;9.968;2022-09-30T04:25:11;98215.16;;;6.31;77.67
46506;BME280;32220;49.808;9.968;2022-09-30T04:27:41;98224.25;;;6.26;77.28
46506;BME280;32220;49.808;9.968;2022-09-30T04:30:09;98223.06;;;6.31;77.74
46506;BME280;32220;49.808;9.968;2022-09-30T04:32:41;98218.22;;;6.24;77.52
46506;BME280;32220;49.808;9.968;2022-09-30T04:35:10;98234.09;;;6.38;77.32
46506;BME280;32220;49.808;9.968;2022-09-30T04:37:41;98228.69;;;6.41;77.30
46506;BME280;32220;49.808;9.968;2022-09-30T04:40:10;98231.22;;;6.42;77.37
46506;BME280;32220;49.808;9.968;2022-09-30T04:42:38;98214.94;;;6.36;77.50
46506;BME280;32220;49.808;9.968;2022-09-30T04:45:09;98233.75;;;6.44;77.29
46506;BME280;32220;49.808;9.968;2022-09-30T04:47:37;98217.13;;;6.43;77.63
46506;BME280;32220;49.808;9.968;2022-09-30T04:50:06;98222.91;;;6.50;77.21
46506;BME280;32220;49.808;9.968;2022-09-30T04:52:33;98222.13;;;6.48;77.24
46506;BME280;32220;49.808;9.968;2022-09-30T04:55:04;98221.13;;;6.51;77.14
46506;BME280;32220;49.808;9.968;2022-09-30T04:57:32;98230.63;;;6.53;77.44
46506;BME280;32220;49.808;9.968;2022-09-30T05:00:00;98230.69;;;6.52;77.36
46506;BME280;32220;49.808;9.968;2022-09-30T05:02:30;98257.34;;;6.61;77.25
46506;BME280;32220;49.808;9.968;2022-09-30T05:04:59;98265.31;;;6.60;77.40
46506;BME280;32220;49.808;9.968;2022-09-30T05:07:29;98237.50;;;6.40;77.62
46506;BME280;32220;49.808;9.968;2022-09-30T05:09:57;98256.00;;;6.54;77.26
46506;BME280;32220;49.808;9.968;2022-09-30T05:12:25;98263.03;;;6.54;77.40
46506;BME280;32220;49.808;9.968;2022-09-30T05:14:53;98275.34;;;6.53;77.47
46506;BME280;32220;49.808;9.968;2022-09-30T05:17:21;98278.97;;;6.51;77.34
46506;BME280;32220;49.808;9.968;2022-09-30T05:19:50;98267.34;;;6.39;77.57
46506;BME280;32220;49.808;9.968;2022-09-30T05:22:18;98263.78;;;6.40;77.57
46506;BME280;32220;49.808;9.968;2022-09-30T05:24:45;98274.97;;;6.43;77.59
46506;BME280;32220;49.808;9.968;2022-09-30T05:27:13;98263.28;;;6.49;77.90
46506;BME280;32220;49.808;9.968;2022-09-30T05:29:41;98273.88;;;6.63;77.62
46506;BME280;32220;49.808;9.968;2022-09-30T05:32:08;98290.78;;;6.75;77.39
46506;BME280;32220;49.808;9.968;2022-09-30T05:34:36;98292.38;;;6.77;77.76
46506;BME280;32220;49.808;9.968;2022-09-30T05:37:07;98292.78;;;6.85;77.55
46506;BME280;32220;49.808;9.968;2022-09-30T05:39:36;98275.84;;;6.75;77.57
46506;BME280;32220;49.808;9.968;2022-09-30T05:42:04;98252.84;;;6.63;77.42
46506;BME280;32220;49.808;9.968;2022-09-30T05:44:32;98290.75;;;6.91;77.43
46506;BME280;32220;49.808;9.968;2022-09-30T05:46:59;98291.69;;;6.90;77.45
46506;BME280;32220;49.808;9.968;2022-09-30T05:49:27;98305.19;;;6.99;77.14
46506;BME280;32220;49.808;9.968;2022-09-30T05:51:55;98298.13;;;7.00;77.38
46506;BME280;32220;49.808;9.968;2022-09-30T05:54:24;98287.94;;;6.94;77.28
46506;BME280;32220;49.808;9.968;2022-09-30T05:56:52;98297.19;;;7.01;77.20
46506;BME280;32220;49.808;9.968;2022-09-30T05:59:20;98314.06;;;7.12;76.98
46506;BME280;32220;49.808;9.968;2022-09-30T06:01:48;98295.81;;;7.09;77.26
46506;BME280;32220;49.808;9.968;2022-09-30T06:04:15;98287.66;;;7.14;77.50
46506;BME280;32220;49.808;9.968;2022-09-30T06:06:43;98292.47;;;7.21;77.09
46506;BME280;32220;49.808;9.968;2022-09-30T06:09:12;98298.25;;;7.28;77.03
46506;BME280;32220;49.808;9.968;2022-09-30T06:11:41;98318.31;;;7.45;76.76
46506;BME280;32220;49.808;9.968;2022-09-30T06:14:11;98271.69;;;7.17;77.18
46506;BME280;32220;49.808;9.968;2022-09-30T06:16:38;98295.06;;;7.37;76.77
46506;BME280;32220;49.808;9.968;2022-09-30T06:19:06;98325.41;;;7.58;76.83
46506;BME280;32220;49.808;9.968;2022-09-30T06:21:34;98312.25;;;7.58;76.69
46506;BME280;32220;49.808;9.968;2022-09-30T06:24:02;98322.16;;;7.69;76.67
46506;BME280;32220;49.808;9.968;2022-09-30T06:26:29;98328.09;;;7.73;76.54
46506;BME280;32220;49.808;9.968;2022-09-30T06:28:59;98326.22;;;7.75;76.24
46506;BME280;32220;49.808;9.968;2022-09-30T06:31:26;98323.75;;;7.72;76.23
46506;BME280;32220;49.808;9.968;2022-09-30T06:33:56;98305.69;;;7.66;76.29
46506;BME280;32220;49.808;9.968;2022-09-30T06:36:23;98326.59;;;7.83;76.15
46506;BME280;32220;49.808;9.968;2022-09-30T06:38:54;98324.91;;;7.82;76.30
46506;BME280;32220;49.808;9.968;2022-09-30T06:41:22;98332.56;;;8.01;76.13
46506;BME280;32220;49.808;9.968;2022-09-30T06:43:52;98342.47;;;8.11;75.90
46506;BME280;32220;49.808;9.968;2022-09-30T06:46:25;98346.41;;;8.18;75.89
46506;BME280;32220;49.808;9.968;2022-09-30T06:48:54;98358.53;;;8.37;75.70
46506;BME280;32220;49.808;9.968;2022-09-30T06:51:23;98350.03;;;8.32;74.93
46506;BME280;32220;49.808;9.968;2022-09-30T06:53:52;98366.25;;;8.40;75.12
46506;BME280;32220;49.808;9.968;2022-09-30T06:56:21;98369.16;;;8.35;74.87
46506;BME280;32220;49.808;9.968;2022-09-30T06:58:49;98364.41;;;8.26;75.20
46506;BME280;32220;49.808;9.968;2022-09-30T07:01:16;98385.34;;;8.43;75.50
46506;BME280;32220;49.808;9.968;2022-09-30T07:03:47;98383.75;;;8.55;75.00
46506;BME280;32220;49.808;9.968;2022-09-30T07:06:15;98371.22;;;8.58;74.84
46506;BME280;32220;49.808;9.968;2022-09-30T07:08:42;98393.09;;;8.89;74.74
46506;BME280;32220;49.808;9.968;2022-09-30T07:11:11;98398.63;;;8.98;74.28
46506;BME280;32220;49.808;9.968;2022-09-30T07:13:41;98394.81;;;9.02;73.89
46506;BME280;32220;49.808;9.968;2022-09-30T07:16:11;98393.88;;;9.04;73.73
46506;BME280;32220;49.808;9.968;2022-09-30T07:18:40;98394.63;;;9.06;73.62
46506;BME280;32220;49.808;9.968;2022-09-30T07:21:13;98409.41;;;9.22;73.53
46506;BME280;32220;49.808;9.968;2022-09-30T07:23:41;98403.66;;;9.16;73.63
46506;BME280;32220;49.808;9.968;2022-09-30T07:26:13;98420.13;;;9.33;73.54
46506;BME280;32220;49.808;9.968;2022-09-30T07:28:41;98409.91;;;9.42;73.65
46506;BME280;32220;49.808;9.968;2022-09-30T07:31:10;98389.63;;;9.42;73.45
46506;BME280;32220;49.808;9.968;2022-09-30T07:33:41;98409.38;;;9.63;73.02
46506;BME280;32220;49.808;9.968;2022-09-30T07:36:12;98376.97;;;9.47;72.47
46506;BME280;32220;49.808;9.968;2022-09-30T07:38:44;98407.78;;;9.61;72.38
46506;BME280;32220;49.808;9.968;2022-09-30T07:41:17;98421.94;;;9.87;72.42
46506;BME280;32220;49.808;9.968;2022-09-30T07:43:47;98430.59;;;10.01;71.56
46506;BME280;32220;49.808;9.968;2022-09-30T07:46:17;98423.31;;;10.05;71.71
46506;BME280;32220;49.808;9.968;2022-09-30T07:48:47;98403.75;;;9.95;70.78
46506;BME280;32220;49.808;9.968;2022-09-30T07:51:20;98435.81;;;10.03;70.19
46506;BME280;32220;49.808;9.968;2022-09-30T07:53:50;98432.44;;;10.01;70.62
46506;BME280;32220;49.808;9.968;2022-09-30T07:56:23;98436.06;;;10.13;70.86
46506;BME280;32220;49.808;9.968;2022-09-30T07:58:52;98437.06;;;10.24;70.74
46506;BME280;32220;49.808;9.968;2022-09-30T08:01:21;98429.72;;;10.28;69.92
46506;BME280;32220;49.808;9.968;2022-09-30T08:03:52;98415.25;;;10.33;70.05
46506;BME280;32220;49.808;9.968;2022-09-30T08:06:22;98454.88;;;10.73;70.53
46506;BME280;32220;49.808;9.968;2022-09-30T08:08:52;98439.28;;;10.81;69.76
46506;BME280;32220;49.808;9.968;2022-09-30T08:11:20;98440.66;;;10.99;69.64
46506;BME280;32220;49.808;9.968;2022-09-30T08:13:49;98459.28;;;11.10;69.21
46506;BME280;32220;49.808;9.968;2022-09-30T08:16:18;98464.13;;;11.16;69.20
46506;BME280;32220;49.808;9.968;2022-09-30T08:18:45;98452.47;;;11.19;69.28
46506;BME280;32220;49.808;9.968;2022-09-30T08:21:13;98435.09;;;11.15;68.91
46506;BME280;32220;49.808;9.968;2022-09-30T08:23:43;98441.84;;;11.32;68.52
46506;BME280;32220;49.808;9.968;2022-09-30T08:26:12;98474.63;;;11.55;68.57
46506;BME280;32220;49.808;9.968;2022-09-30T08:28:40;98466.78;;;11.53;68.49
46506;BME280;32220;49.808;9.968;2022-09-30T08:31:10;98485.84;;;11.71;68.33
46506;BME280;32220;49.808;9.968;2022-09-30T08:33:38;98485.41;;;11.64;68.29
46506;BME280;32220;49.808;9.968;2022-09-30T08:36:08;98488.19;;;11.63;68.17
46506;BME280;32220;49.808;9.968;2022-09-30T08:38:36;98485.19;;;11.67;68.05
46506;BME280;32220;49.808;9.968;2022-09-30T08:41:17;98485.72;;;11.72;67.24
46506;BME280;32220;49.808;9.968;2022-09-30T08:43:59;98503.19;;;11.87;67.42
46506;BME280;32220;49.808;9.968;2022-09-30T08:46:38;98497.59;;;11.79;67.85
46506;BME280;32220;49.808;9.968;2022-09-30T08:49:31;98494.50;;;11.85;67.61
46506;BME280;32220;49.808;9.968;2022-09-30T08:52:01;98508.56;;;11.99;67.32
46506;BME280;32220;49.808;9.968;2022-09-30T08:54:33;98506.09;;;12.08;67.38
46506;BME280;32220;49.808;9.968;2022-09-30T08:57:03;98520.25;;;12.20;67.25
46506;BME280;32220;49.808;9.968;2022-09-30T08:59:34;98506.47;;;12.15;66.96
46506;BME280;32220;49.808;9.968;2022-09-30T09:02:15;98511.31;;;12.21;67.29
46506;BME280;32220;49.808;9.968;2022-09-30T09:04:47;98507.47;;;12.25;67.16
46506;BME280;32220;49.808;9.968;2022-09-30T09:07:28;98516.69;;;12.32;66.67
46506;BME280;32220;49.808;9.968;2022-09-30T09:10:11;98515.03;;;12.42;66.73
46506;BME280;32220;49.808;9.968;2022-09-30T09:12:48;98518.78;;;12.51;66.34
46506;BME280;32220;49.808;9.968;2022-09-30T09:15:28;98529.31;;;12.64;66.18
46506;BME280;32220;49.808;9.968;2022-09-30T09:18:16;98521.28;;;12.87;66.29
46506;BME280;32220;49.808;9.968;2022-09-30T09:20:53;98529.25;;;12.99;66.18
46506;BME280;32220;49.808;9.968;2022-09-30T09:23:21;98527.72;;;13.07;65.92
46506;BME280;32220;49.808;9.968;2022-09-30T09:25:50;98517.09;;;13.07;65.84
46506;BME280;32220;49.808;9.968;2022-09-30T09:28:32;98525.09;;;13.41;65.57
46506;BME280;32220;49.808;9.968;2022-09-30T09:31:03;98505.00;;;13.48;65.19
46506;BME280;32220;49.808;9.968;2022-09-30T09:33:34;98531.63;;;13.70;64.49
46506;BME280;32220;49.808;9.968;2022-09-30T09:36:16;98526.03;;;13.73;64.59
46506;BME280;32220;49.808;9.968;2022-09-30T09:39:02;98524.78;;;13.88;64.62
46506;BME280;32220;49.808;9.968;2022-09-30T09:41:40;98526.41;;;14.12;63.96
46506;BME280;32220;49.808;9.968;2022-09-30T09:44:18;98544.00;;;14.35;63.72
46506;BME280;32220;49.808;9.968;2022-09-30T09:46:52;98523.22;;;14.29;63.49
46506;BME280;32220;49.808;9.968;2022-09-30T09:49:30;98550.31;;;14.45;63.04
46506;BME280;32220;49.808;9.968;2022-09-30T09:52:19;98540.03;;;14.61;63.04
46506;BME280;32220;49.808;9.968;2022-09-30T09:54:53;98545.06;;;14.76;62.59
46506;BME280;32220;49.808;9.968;2022-09-30T09:57:24;98538.69;;;14.88;61.53
46506;BME280;32220;49.808;9.968;2022-09-30T10:00:02;98486.88;;;14.81;61.03
46506;BME280;32220;49.808;9.968;2022-09-30T10:02:58;98529.03;;;15.48;60.93
46506;BME280;32220;49.808;9.968;2022-09-30T10:05:27;98529.44;;;15.83;59.48
46506;BME280;32220;49.808;9.968;2022-09-30T10:08:09;98518.69;;;16.33;58.29
46506;BME280;32220;49.808;9.968;2022-09-30T10:10:44;98502.38;;;16.94;57.28
46506;BME280;32220;49.808;9.968;2022-09-30T10:13:20;98527.16;;;17.42;55.90
46506;BME280;32220;49.808;9.968;2022-09-30T10:15:51;98528.00;;;17.80;55.78
46506;BME280;32220;49.808;9.968;2022-09-30T10:18:24;98523.41;;;18.53;54.97
46506;BME280;32220;49.808;9.968;2022-09-30T10:20:55;98527.72;;;19.41;53.42
46506;BME280;32220;49.808;9.968;2022-09-30T10:23:29;98539.78;;;20.47;50.72
46506;BME280;32220;49.808;9.968;2022-09-30T10:26:00;98553.09;;;21.85;47.51
46506;BME280;32220;49.808;9.968;2022-09-30T10:28:32;98545.72;;;22.49;45.30
46506;BME280;32220;49.808;9.968;2022-09-30T10:31:19;98564.44;;;22.96;43.55
46506;BME280;32220;49.808;9.968;2022-09-30T10:33:55;98565.50;;;23.62;42.50
46506;BME280;32220;49.808;9.968;2022-09-30T10:36:30;98582.84;;;24.12;40.84
46506;BME280;32220;49.808;9.968;2022-09-30T10:39:02;98577.84;;;24.81;40.42
46506;BME280;32220;49.808;9.968;2022-09-30T10:41:34;98583.22;;;25.66;38.73
46506;BME280;32220;49.808;9.968;2022-09-30T10:44:06;98582.47;;;26.80;37.03
46506;BME280;32220;49.808;9.968;2022-09-30T10:46:46;98605.06;;;28.19;34.24
46506;BME280;32220;49.808;9.968;2022-09-30T10:49:23;98591.53;;;29.20;33.88
46506;BME280;32220;49.808;9.968;2022-09-30T10:51:53;98598.69;;;30.14;31.69
46506;BME280;32220;49.808;9.968;2022-09-30T10:54:48;98608.81;;;31.63;30.83
46506;BME280;32220;49.808;9.968;2022-09-30T10:57:20;98615.75;;;32.53;29.13
46506;BME280;32220;49.808;9.968;2022-09-30T10:59:49;98604.50;;;32.77;28.98
46506;BME280;32220;49.808;9.968;2022-09-30T11:02:25;98604.75;;;32.76;29.13
46506;BME280;32220;49.808;9.968;2022-09-30T11:05:03;98604.31;;;34.13;27.76
46506;BME280;32220;49.808;9.968;2022-09-30T11:07:38;98610.09;;;35.89;25.87
46506;BME280;32220;49.808;9.968;2022-09-30T11:10:20;98611.81;;;37.35;22.73
46506;BME280;32220;49.808;9.968;2022-09-30T11:12:54;98622.47;;;38.54;22.08
46506;BME280;32220;49.808;9.968;2022-09-30T11:15:27;98606.03;;;39.22;21.63
46506;BME280;32220;49.808;9.968;2022-09-30T11:18:01;98608.38;;;39.77;20.82
46506;BME280;32220;49.808;9.968;2022-09-30T11:20:36;98620.25;;;40.41;20.28
46506;BME280;32220;49.808;9.968;2022-09-30T11:23:13;98618.81;;;40.67;19.98
46506;BME280;32220;49.808;9.968;2022-09-30T11:25:49;98607.63;;;40.25;20.07
46506;BME280;32220;49.808;9.968;2022-09-30T11:28:29;98594.44;;;38.70;21.87
46506;BME280;32220;49.808;9.968;2022-09-30T11:31:06;98576.28;;;36.61;23.97
46506;BME280;32220;49.808;9.968;2022-09-30T11:33:53;98589.19;;;35.93;23.70
46506;BME280;32220;49.808;9.968;2022-09-30T11:36:30;98590.72;;;36.79;22.83
46506;BME280;32220;49.808;9.968;2022-09-30T11:39:16;98602.34;;;38.28;20.52
46506;BME280;32220;49.808;9.968;2022-09-30T11:41:51;98620.97;;;39.65;18.65
46506;BME280;32220;49.808;9.968;2022-09-30T11:44:29;98605.16;;;40.47;18.02
46506;BME280;32220;49.808;9.968;2022-09-30T11:47:12;98627.81;;;41.39;17.11
46506;BME280;32220;49.808;9.968;2022-09-30T11:49:52;98620.22;;;41.64;16.99
46506;BME280;32220;49.808;9.968;2022-09-30T11:52:29;98605.16;;;41.46;17.44
46506;BME280;32220;49.808;9.968;2022-09-30T11:57:51;98608.34;;;41.20;17.29
46506;BME280;32220;49.808;9.968;2022-09-30T12:00:24;98560.66;;;40.95;17.67
46506;BME280;32220;49.808;9.968;2022-09-30T12:02:54;98583.53;;;41.43;16.92
46506;BME280;32220;49.808;9.968;2022-09-30T12:05:39;98583.44;;;41.67;16.21
46506;BME280;32220;49.808;9.968;2022-09-30T12:08:11;98614.78;;;41.86;15.85
46506;BME280;32220;49.808;9.968;2022-09-30T12:10:44;98581.25;;;41.96;16.56
46506;BME280;32220;49.808;9.968;2022-09-30T12:13:17;98602.28;;;42.02;16.99
46506;BME280;32220;49.808;9.968;2022-09-30T12:15:48;98608.38;;;41.72;16.14
46506;BME280;32220;49.808;9.968;2022-09-30T12:18:20;98569.38;;;41.25;16.65
46506;BME280;32220;49.808;9.968;2022-09-30T12:20:55;98575.53;;;41.41;17.38
46506;BME280;32220;49.808;9.968;2022-09-30T12:23:30;98571.81;;;41.46;16.39
46506;BME280;32220;49.808;9.968;2022-09-30T12:26:01;98588.91;;;41.02;16.10
46506;BME280;32220;49.808;9.968;2022-09-30T12:28:33;98617.81;;;39.76;16.64
46506;BME280;32220;49.808;9.968;2022-09-30T12:34:32;98601.34;;;36.45;17.80
46506;BME280;32220;49.808;9.968;2022-09-30T12:37:38;98594.56;;;34.87;19.19
46506;BME280;32220;49.808;9.968;2022-09-30T12:44:53;98572.28;;;32.44;21.65
46506;BME280;32220;49.808;9.968;2022-09-30T12:47:33;98570.53;;;33.57;20.66
46506;BME280;32220;49.808;9.968;2022-09-30T12:50:06;98553.41;;;34.98;18.63
46506;BME280;32220;49.808;9.968;2022-09-30T12:52:36;98572.94;;;35.97;18.73
46506;BME280;32220;49.808;9.968;2022-09-30T12:55:07;98576.03;;;35.69;20.01
46506;BME280;32220;49.808;9.968;2022-09-30T12:57:41;98576.34;;;35.08;18.76
46506;BME280;32220;49.808;9.968;2022-09-30T13:00:15;98571.47;;;35.79;19.61
46506;BME280;32220;49.808;9.968;2022-09-30T13:02:46;98561.09;;;36.64;18.29
46506;BME280;32220;49.808;9.968;2022-09-30T13:05:46;98569.81;;;37.38;17.58
46506;BME280;32220;49.808;9.968;2022-09-30T13:11:41;98582.91;;;38.53;16.53
46506;BME280;32220;49.808;9.968;2022-09-30T13:14:29;98558.78;;;38.59;16.31
46506;BME280;32220;49.808;9.968;2022-09-30T13:20:13;98581.34;;;39.30;17.48
46506;BME280;32220;49.808;9.968;2022-09-30T13:22:55;98556.53;;;39.15;17.59
46506;BME280;32220;49.808;9.968;2022-09-30T13:25:24;98591.19;;;39.46;17.73
46506;BME280;32220;49.808;9.968;2022-09-30T13:28:25;98608.66;;;39.47;16.40
46506;BME280;32220;49.808;9.968;2022-09-30T13:31:13;98577.19;;;39.28;17.75
46506;BME280;32220;49.808;9.968;2022-09-30T13:33:46;98572.31;;;39.14;17.38
46506;BME280;32220;49.808;9.968;2022-09-30T13:36:30;98543.59;;;39.00;18.01
46506;BME280;32220;49.808;9.968;2022-09-30T13:39:18;98585.31;;;39.19;18.05
46506;BME280;32220;49.808;9.968;2022-09-30T13:41:57;98585.47;;;38.89;18.19
46506;BME280;32220;49.808;9.968;2022-09-30T13:44:33;98584.59;;;38.44;18.65
46506;BME280;32220;49.808;9.968;2022-09-30T13:47:09;98586.13;;;37.50;18.50
46506;BME280;32220;49.808;9.968;2022-09-30T13:49:50;98583.06;;;37.47;19.24
46506;BME280;32220;49.808;9.968;2022-09-30T13:52:21;98567.34;;;37.52;19.05
46506;BME280;32220;49.808;9.968;2022-09-30T13:54:51;98577.00;;;37.55;18.98
46506;BME280;32220;49.808;9.968;2022-09-30T13:57:25;98559.03;;;37.47;19.74
46506;BME280;32220;49.808;9.968;2022-09-30T14:00:02;98572.03;;;37.42;19.31